Time;durP1;ratioP1;P1;durP2;ratioP2;P2;SDS_P1;SDS_P2;PMS_P1;PMS_P2;Temp;Humidity;BMP_temperature;BMP_pressure;BME280_temperature;BME280_humidity;BME280_pressure;Samples;Min_cycle;Max_cycle;Signal;HPM_P1;HPM_P2
2024/02/27 00:01:23;;;;;;;13.80;6.53;;;;;;;;;;5005702;28;20025;-69
2024/02/27 00:03:48;;;;;;;8.60;5.50;;;;;;;;;;4999987;28;20803;-69
2024/02/27 00:06:13;;;;;;;15.13;6.47;;;;;;;;;;5002925;28;20277;-69
2024/02/27 00:08:38;;;;;;;14.27;7.15;;;;;;;;;;5003879;28;20025;-69
2024/02/27 00:11:04;;;;;;;11.45;6.40;;;;;;;;;;5004553;28;20425;-69
2024/02/27 00:13:29;;;;;;;11.23;6.80;;;;;;;;;;5003962;28;20401;-69
2024/02/27 00:15:54;;;;;;;10.00;6.93;;;;;;;;;;5002024;28;20539;-69
2024/02/27 00:18:19;;;;;;;12.53;7.10;;;;;;;;;;5000990;28;20424;-69
2024/02/27 00:20:45;;;;;;;9.37;6.37;;;;;;;;;;5002632;28;20651;-69
2024/02/27 00:23:11;;;;;;;11.70;6.60;;;;;;;;;;5001659;28;20264;-69
2024/02/27 00:25:36;;;;;;;18.00;6.65;;;;;;;;;;5005722;28;20025;-69
2024/02/27 00:28:01;;;;;;;10.70;6.15;;;;;;;;;;5001294;28;20038;-69
2024/02/27 00:30:27;;;;;;;13.75;7.55;;;;;;;;;;5004832;28;20022;-69
2024/02/27 00:32:55;;;;;;;11.83;7.03;;;;;;;;;;5009809;28;20562;-69
2024/02/27 00:35:20;;;;;;;12.57;7.88;;;;;;;;;;5007241;28;20802;-69
2024/02/27 00:37:45;;;;;;;10.80;7.27;;;;;;;;;;4998610;28;20030;-69
2024/02/27 00:40:12;;;;;;;13.65;7.65;;;;;;;;;;5008523;28;20316;-69
2024/02/27 00:42:37;;;;;;;13.65;8.05;;;;;;;;;;4999976;28;20346;-69
2024/02/27 00:45:02;;;;;;;14.20;8.27;;;;;;;;;;5009000;28;20128;-69
2024/02/27 00:47:27;;;;;;;18.33;8.25;;;;;;;;;;5007475;28;20256;-69
2024/02/27 00:49:53;;;;;;;11.75;7.55;;;;;;;;;;5001916;28;20416;-69
2024/02/27 00:52:18;;;;;;;16.13;8.27;;;;;;;;;;5004700;28;20077;-69
2024/02/27 00:54:43;;;;;;;14.35;8.70;;;;;;;;;;4999752;28;20296;-69
2024/02/27 00:57:08;;;;;;;17.25;9.32;;;;;;;;;;5007125;28;20376;-69
2024/02/27 00:59:33;;;;;;;19.13;9.93;;;;;;;;;;5009374;28;20101;-69
2024/02/27 01:01:58;;;;;;;16.83;8.50;;;;;;;;;;5007685;28;20393;-69
2024/02/27 01:04:24;;;;;;;13.93;7.80;;;;;;;;;;5009606;28;20307;-69
2024/02/27 01:06:49;;;;;;;14.30;8.20;;;;;;;;;;5004228;28;20018;-69
2024/02/27 01:09:14;;;;;;;15.20;8.80;;;;;;;;;;5003964;28;20805;-69
2024/02/27 01:11:39;;;;;;;16.13;8.70;;;;;;;;;;5009653;28;20045;-69
2024/02/27 01:14:04;;;;;;;21.17;8.83;;;;;;;;;;5009247;28;20017;-69
2024/02/27 01:16:30;;;;;;;15.73;8.93;;;;;;;;;;5009386;28;20779;-69
2024/02/27 01:18:55;;;;;;;15.50;9.02;;;;;;;;;;5008558;28;20481;-69
2024/02/27 01:21:20;;;;;;;15.55;9.15;;;;;;;;;;5007204;28;20500;-69
2024/02/27 01:23:46;;;;;;;14.87;8.97;;;;;;;;;;5005647;28;20493;-69
2024/02/27 01:26:11;;;;;;;15.70;8.57;;;;;;;;;;5008052;28;20372;-69
2024/02/27 01:28:37;;;;;;;16.58;8.23;;;;;;;;;;5005385;28;20064;-69
2024/02/27 01:31:02;;;;;;;14.57;8.60;;;;;;;;;;5009504;28;20033;-69
2024/02/27 01:33:28;;;;;;;15.55;8.60;;;;;;;;;;5008877;28;20018;-69
2024/02/27 01:35:54;;;;;;;14.65;9.05;;;;;;;;;;4999934;28;20034;-69
2024/02/27 01:38:19;;;;;;;14.43;8.63;;;;;;;;;;5003149;28;20466;-69
2024/02/27 01:40:44;;;;;;;14.10;7.97;;;;;;;;;;5007445;28;20352;-69
2024/02/27 01:43:22;;;;;;;15.50;8.32;;;;;;;;;;5006397;28;20261;-69
2024/02/27 01:45:47;;;;;;;17.25;9.15;;;;;;;;;;5007018;28;20045;-69
2024/02/27 01:48:13;;;;;;;15.30;9.20;;;;;;;;;;5006193;28;20022;-69
2024/02/27 01:50:38;;;;;;;14.80;8.63;;;;;;;;;;5008243;28;20409;-69
2024/02/27 01:53:03;;;;;;;15.77;8.45;;;;;;;;;;5004805;28;20025;-69
2024/02/27 01:55:28;;;;;;;15.17;8.43;;;;;;;;;;5007113;28;20152;-69
2024/02/27 01:57:54;;;;;;;17.27;8.90;;;;;;;;;;5010451;28;20636;-69
2024/02/27 02:00:20;;;;;;;18.10;9.10;;;;;;;;;;5009362;28;20113;-69
2024/02/27 02:02:45;;;;;;;14.90;8.32;;;;;;;;;;5010091;28;20072;-69
2024/02/27 02:05:11;;;;;;;14.98;8.68;;;;;;;;;;5010685;28;20462;-69
2024/02/27 02:07:38;;;;;;;15.40;8.95;;;;;;;;;;5006949;28;20412;-69
2024/02/27 02:10:04;;;;;;;17.00;8.60;;;;;;;;;;5011656;28;20044;-69
2024/02/27 02:12:29;;;;;;;17.75;8.85;;;;;;;;;;5012691;28;20481;-69
2024/02/27 02:14:54;;;;;;;16.63;8.32;;;;;;;;;;4997141;28;20018;-69
2024/02/27 02:17:20;;;;;;;14.35;8.27;;;;;;;;;;5005822;28;20516;-69
2024/02/27 02:19:45;;;;;;;17.33;9.00;;;;;;;;;;5004770;28;20462;-69
2024/02/27 02:22:10;;;;;;;15.52;8.73;;;;;;;;;;5007879;28;20014;-69
2024/02/27 02:24:37;;;;;;;13.30;8.30;;;;;;;;;;5010054;28;20022;-69
2024/02/27 02:27:02;;;;;;;14.23;8.40;;;;;;;;;;5002044;28;20352;-69
2024/02/27 02:29:28;;;;;;;17.40;8.88;;;;;;;;;;5007523;28;20462;-69
2024/02/27 02:31:54;;;;;;;18.50;9.10;;;;;;;;;;5007632;28;20030;-69
2024/02/27 02:34:19;;;;;;;14.32;8.38;;;;;;;;;;5006955;28;20124;-69
2024/02/27 02:36:44;;;;;;;17.50;8.70;;;;;;;;;;5010657;28;20030;-69
2024/02/27 02:39:09;;;;;;;14.97;9.20;;;;;;;;;;5007505;28;20376;-69
2024/02/27 02:41:34;;;;;;;16.77;9.48;;;;;;;;;;5004403;28;20249;-69
2024/02/27 02:43:59;;;;;;;23.80;9.20;;;;;;;;;;5004704;28;20064;-69
2024/02/27 02:46:25;;;;;;;19.00;9.23;;;;;;;;;;5008209;28;20273;-68
2024/02/27 02:48:50;;;;;;;16.60;9.63;;;;;;;;;;5005661;28;20539;-69
2024/02/27 02:51:15;;;;;;;18.50;9.43;;;;;;;;;;5006174;28;20485;-69
2024/02/27 02:53:40;;;;;;;16.43;9.90;;;;;;;;;;5009629;28;20249;-69
2024/02/27 02:56:05;;;;;;;18.70;9.43;;;;;;;;;;5009824;28;20740;-69
2024/02/27 02:58:31;;;;;;;17.17;10.18;;;;;;;;;;5008689;28;20316;-69
2024/02/27 03:00:56;;;;;;;18.57;10.37;;;;;;;;;;5010409;28;20017;-69
2024/02/27 03:03:21;;;;;;;21.15;10.05;;;;;;;;;;5011407;28;20340;-69
2024/02/27 03:05:47;;;;;;;21.50;10.88;;;;;;;;;;5002785;28;20014;-69
2024/02/27 03:08:12;;;;;;;22.00;11.43;;;;;;;;;;5007736;28;20033;-69
2024/02/27 03:10:37;;;;;;;20.42;10.40;;;;;;;;;;5007047;28;20108;-69
2024/02/27 03:13:02;;;;;;;23.60;11.70;;;;;;;;;;5010214;28;20040;-69
2024/02/27 03:15:28;;;;;;;25.13;11.90;;;;;;;;;;5011696;28;20612;-69
2024/02/27 03:17:53;;;;;;;27.57;12.27;;;;;;;;;;5007659;28;20103;-69
2024/02/27 03:20:18;;;;;;;21.48;11.52;;;;;;;;;;5002847;28;20313;-69
2024/02/27 03:22:43;;;;;;;24.83;11.68;;;;;;;;;;5007200;28;20174;-69
2024/02/27 03:25:10;;;;;;;22.83;12.45;;;;;;;;;;5008109;28;20022;-69
2024/02/27 03:27:35;;;;;;;22.10;11.60;;;;;;;;;;5011137;28;20014;-69
2024/02/27 03:30:00;;;;;;;25.42;12.52;;;;;;;;;;5009117;28;20025;-69
2024/02/27 03:32:26;;;;;;;23.63;11.77;;;;;;;;;;5008748;28;20757;-69
2024/02/27 03:34:51;;;;;;;24.75;12.60;;;;;;;;;;5001807;28;20484;-69
2024/02/27 03:37:16;;;;;;;22.63;12.10;;;;;;;;;;5006119;28;20532;-69
2024/02/27 03:39:42;;;;;;;25.67;13.20;;;;;;;;;;5009975;28;20387;-69
2024/02/27 03:42:07;;;;;;;28.55;13.32;;;;;;;;;;5025652;28;20026;-69
2024/02/27 03:44:32;;;;;;;27.50;14.25;;;;;;;;;;5009768;28;20508;-69
2024/02/27 03:46:57;;;;;;;32.28;15.15;;;;;;;;;;5009015;28;20029;-69
2024/02/27 03:49:22;;;;;;;28.65;14.48;;;;;;;;;;5007920;28;20038;-69
2024/02/27 03:51:48;;;;;;;28.20;15.03;;;;;;;;;;5007322;28;20064;-69
2024/02/27 03:54:13;;;;;;;30.03;15.77;;;;;;;;;;5008248;28;20265;-69
2024/02/27 03:56:38;;;;;;;28.23;14.43;;;;;;;;;;5003422;28;20314;-69
2024/02/27 03:59:03;;;;;;;31.38;15.50;;;;;;;;;;5008817;28;20286;-69
2024/02/27 04:01:28;;;;;;;29.60;15.57;;;;;;;;;;5009001;28;20065;-69
2024/02/27 04:03:54;;;;;;;28.83;15.07;;;;;;;;;;5009347;28;20249;-69
2024/02/27 04:06:19;;;;;;;33.85;17.20;;;;;;;;;;5004570;28;20764;-69
2024/02/27 04:08:44;;;;;;;35.53;15.02;;;;;;;;;;5005882;28;20021;-69
2024/02/27 04:11:10;;;;;;;35.17;17.80;;;;;;;;;;5003498;28;20022;-69
2024/02/27 04:13:35;;;;;;;33.67;15.95;;;;;;;;;;5008231;28;20041;-69
2024/02/27 04:16:00;;;;;;;36.20;17.20;;;;;;;;;;5008398;28;20527;-69
2024/02/27 04:18:25;;;;;;;35.50;17.45;;;;;;;;;;5008878;28;20288;-69
2024/02/27 04:20:50;;;;;;;32.77;16.40;;;;;;;;;;5008529;28;20331;-69
2024/02/27 04:23:16;;;;;;;36.77;18.50;;;;;;;;;;5001551;28;20273;-69
2024/02/27 04:25:41;;;;;;;36.13;17.65;;;;;;;;;;5007778;28;20356;-69
2024/02/27 04:28:06;;;;;;;37.20;20.57;;;;;;;;;;5008996;28;20022;-69
2024/02/27 04:30:32;;;;;;;43.10;19.67;;;;;;;;;;5008412;28;20818;-69
2024/02/27 04:32:57;;;;;;;41.28;19.25;;;;;;;;;;5006696;28;20033;-69
2024/02/27 04:35:23;;;;;;;37.90;17.27;;;;;;;;;;5006851;28;20064;-69
2024/02/27 04:37:48;;;;;;;43.25;20.73;;;;;;;;;;5008210;28;20757;-69
2024/02/27 04:40:13;;;;;;;37.97;19.20;;;;;;;;;;5006094;28;20065;-69
2024/02/27 04:42:38;;;;;;;47.37;19.77;;;;;;;;;;5007263;28;20010;-68
2024/02/27 04:45:04;;;;;;;44.47;21.30;;;;;;;;;;5007657;28;20307;-69
2024/02/27 04:47:29;;;;;;;46.90;21.45;;;;;;;;;;5009016;28;20042;-69
2024/02/27 04:49:54;;;;;;;43.47;20.42;;;;;;;;;;5007476;28;20073;-69
2024/02/27 04:52:20;;;;;;;43.03;22.07;;;;;;;;;;5008533;28;20104;-69
2024/02/27 04:54:45;;;;;;;45.30;21.25;;;;;;;;;;5004394;28;20330;-69
2024/02/27 04:57:11;;;;;;;48.42;24.23;;;;;;;;;;5003150;28;20027;-69
2024/02/27 04:59:36;;;;;;;42.00;20.75;;;;;;;;;;4999666;28;20531;-69
2024/02/27 05:02:03;;;;;;;43.30;21.20;;;;;;;;;;5000178;28;20379;-69
2024/02/27 05:04:28;;;;;;;42.25;19.50;;;;;;;;;;5003620;28;20080;-69
2024/02/27 05:06:54;;;;;;;42.65;21.17;;;;;;;;;;5003911;28;20050;-68
2024/02/27 05:09:19;;;;;;;45.00;21.35;;;;;;;;;;5002160;28;20461;-69
2024/02/27 05:11:44;;;;;;;51.42;24.33;;;;;;;;;;5008324;28;20383;-68
2024/02/27 05:14:10;;;;;;;50.17;24.53;;;;;;;;;;5006649;28;20034;-69
2024/02/27 05:16:35;;;;;;;44.65;22.08;;;;;;;;;;5002632;28;20753;-69
2024/02/27 05:19:00;;;;;;;50.23;23.73;;;;;;;;;;5006739;28;20026;-69
2024/02/27 05:21:25;;;;;;;44.43;21.37;;;;;;;;;;5007725;28;20300;-68
2024/02/27 05:23:50;;;;;;;45.60;21.63;;;;;;;;;;5004852;28;20775;-69
2024/02/27 05:26:16;;;;;;;48.33;22.40;;;;;;;;;;5001254;28;20281;-69
2024/02/27 05:28:41;;;;;;;50.30;23.17;;;;;;;;;;5006431;28;20041;-69
2024/02/27 05:31:23;;;;;;;56.57;22.70;;;;;;;;;;5002977;28;20045;-69
2024/02/27 05:33:48;;;;;;;46.03;22.52;;;;;;;;;;5007356;28;20260;-69
2024/02/27 05:36:13;;;;;;;52.78;23.02;;;;;;;;;;5011123;28;20488;-69
2024/02/27 05:38:38;;;;;;;52.43;22.80;;;;;;;;;;5002012;28;20302;-69
2024/02/27 05:41:03;;;;;;;45.60;21.90;;;;;;;;;;5003919;28;20265;-69
2024/02/27 05:43:28;;;;;;;52.22;24.13;;;;;;;;;;5010301;28;20256;-69
2024/02/27 05:45:54;;;;;;;52.23;23.30;;;;;;;;;;5008701;28;20032;-69
2024/02/27 05:48:19;;;;;;;50.40;21.67;;;;;;;;;;5003206;28;20898;-69
2024/02/27 05:50:45;;;;;;;49.43;22.03;;;;;;;;;;5008876;28;20271;-69
2024/02/27 05:53:10;;;;;;;53.63;23.60;;;;;;;;;;5007346;28;20348;-69
2024/02/27 05:55:36;;;;;;;44.47;21.47;;;;;;;;;;5009195;28;20478;-69
2024/02/27 05:58:01;;;;;;;53.05;22.63;;;;;;;;;;5007417;28;20286;-69
2024/02/27 06:00:26;;;;;;;49.35;22.90;;;;;;;;;;5007764;28;20121;-69
2024/02/27 06:02:51;;;;;;;45.17;21.55;;;;;;;;;;4996967;28;20026;-69
2024/02/27 06:05:16;;;;;;;54.40;23.03;;;;;;;;;;5007491;28;20034;-69
2024/02/27 06:07:42;;;;;;;49.67;23.07;;;;;;;;;;5011261;28;20419;-69
2024/02/27 06:10:07;;;;;;;45.03;21.63;;;;;;;;;;5007361;28;20257;-69
2024/02/27 06:12:33;;;;;;;44.17;20.48;;;;;;;;;;5009356;28;20380;-69
2024/02/27 06:14:58;;;;;;;45.50;23.02;;;;;;;;;;5005512;28;20034;-69
2024/02/27 06:17:23;;;;;;;47.27;21.43;;;;;;;;;;5001126;28;20030;-69
2024/02/27 06:19:55;;;;;;;51.25;24.02;;;;;;;;;;4999429;28;20288;-69
2024/02/27 06:22:22;;;;;;;54.83;22.77;;;;;;;;;;5008124;28;20026;-69
2024/02/27 06:24:48;;;;;;;50.50;23.42;;;;;;;;;;5008856;28;20021;-68
2024/02/27 06:27:13;;;;;;;47.70;21.67;;;;;;;;;;5004469;28;20022;-69
2024/02/27 06:29:38;;;;;;;51.87;22.00;;;;;;;;;;4999339;28;20026;-68
2024/02/27 06:32:06;;;;;;;47.67;22.27;;;;;;;;;;5005574;28;20344;-69
2024/02/27 06:34:31;;;;;;;47.95;21.42;;;;;;;;;;5000398;28;20022;-68
2024/02/27 06:36:56;;;;;;;51.17;23.23;;;;;;;;;;5004348;28;20041;-68
2024/02/27 06:39:21;;;;;;;48.38;22.27;;;;;;;;;;5003458;28;20050;-68
2024/02/27 06:41:47;;;;;;;44.00;20.50;;;;;;;;;;5008482;28;20058;-69
2024/02/27 06:44:12;;;;;;;50.70;21.90;;;;;;;;;;5001574;28;20292;-69
2024/02/27 06:46:38;;;;;;;47.10;21.50;;;;;;;;;;5002621;28;20159;-69
2024/02/27 06:49:03;;;;;;;49.70;21.53;;;;;;;;;;5002604;28;20273;-69
2024/02/27 06:51:29;;;;;;;49.28;22.83;;;;;;;;;;4999665;28;21272;-69
2024/02/27 06:53:54;;;;;;;46.22;21.10;;;;;;;;;;5005413;28;20375;-69
2024/02/27 06:56:19;;;;;;;44.33;20.60;;;;;;;;;;5004716;28;20540;-69
2024/02/27 06:58:44;;;;;;;52.72;23.50;;;;;;;;;;4999870;28;20018;-68
2024/02/27 07:01:11;;;;;;;48.97;23.20;;;;;;;;;;5005397;28;20299;-69
2024/02/27 07:03:37;;;;;;;47.78;21.65;;;;;;;;;;4998340;28;20021;-69
2024/02/27 07:06:02;;;;;;;45.20;20.98;;;;;;;;;;4996350;28;20037;-68
2024/02/27 07:08:27;;;;;;;47.47;22.00;;;;;;;;;;4993744;28;20097;-68
2024/02/27 07:10:52;;;;;;;45.92;20.50;;;;;;;;;;5007995;28;20033;-68
2024/02/27 07:13:18;;;;;;;46.10;22.08;;;;;;;;;;5010698;28;20167;-69
2024/02/27 07:15:43;;;;;;;49.10;22.48;;;;;;;;;;5005243;28;20069;-69
2024/02/27 07:18:08;;;;;;;48.00;21.23;;;;;;;;;;5006013;28;20397;-69
2024/02/27 07:20:34;;;;;;;45.83;21.67;;;;;;;;;;5009859;28;20022;-69
2024/02/27 07:23:00;;;;;;;44.90;22.05;;;;;;;;;;5008856;28;20068;-68
2024/02/27 07:25:25;;;;;;;46.88;21.98;;;;;;;;;;5008346;28;20057;-69
2024/02/27 07:27:51;;;;;;;49.35;21.60;;;;;;;;;;5008186;28;20123;-68
2024/02/27 07:30:16;;;;;;;49.80;22.42;;;;;;;;;;5004061;28;20540;-69
2024/02/27 07:32:41;;;;;;;50.17;22.00;;;;;;;;;;5005182;28;20029;-69
2024/02/27 07:35:07;;;;;;;46.30;21.30;;;;;;;;;;5003498;28;20032;-69
2024/02/27 07:37:33;;;;;;;43.00;20.58;;;;;;;;;;5001343;28;20050;-68
2024/02/27 07:39:58;;;;;;;44.40;21.33;;;;;;;;;;5001663;28;20064;-69
2024/02/27 07:42:23;;;;;;;48.90;22.57;;;;;;;;;;5010634;28;20369;-69
2024/02/27 07:44:48;;;;;;;43.05;20.95;;;;;;;;;;5008302;28;20269;-68
2024/02/27 07:47:14;;;;;;;43.47;20.53;;;;;;;;;;5007907;28;20030;-69
2024/02/27 07:49:43;;;;;;;43.70;21.60;;;;;;;;;;5010391;28;20335;-69
2024/02/27 07:52:08;;;;;;;51.13;23.10;;;;;;;;;;5002822;28;20025;-69
2024/02/27 07:54:33;;;;;;;45.97;21.25;;;;;;;;;;5003346;28;20018;-69
2024/02/27 07:56:58;;;;;;;47.90;21.67;;;;;;;;;;5003909;28;20017;-69
2024/02/27 07:59:24;;;;;;;48.77;20.97;;;;;;;;;;5007806;28;20084;-69
2024/02/27 08:01:49;;;;;;;43.35;20.85;;;;;;;;;;5008634;28;20701;-69
2024/02/27 08:04:15;;;;;;;42.40;20.83;;;;;;;;;;5009757;28;20022;-69
2024/02/27 08:06:40;;;;;;;43.45;21.75;;;;;;;;;;5009750;28;20491;-69
2024/02/27 08:09:05;;;;;;;44.80;20.90;;;;;;;;;;5000795;28;20029;-69
2024/02/27 08:11:31;;;;;;;43.50;20.80;;;;;;;;;;5000724;28;20328;-69
2024/02/27 08:13:57;;;;;;;41.83;21.10;;;;;;;;;;5004536;28;20257;-69
2024/02/27 08:16:23;;;;;;;46.47;21.35;;;;;;;;;;5006874;28;20041;-69
2024/02/27 08:18:48;;;;;;;43.10;21.13;;;;;;;;;;4998335;28;20481;-69
2024/02/27 08:21:14;;;;;;;47.57;22.43;;;;;;;;;;5005415;28;20152;-69
2024/02/27 08:23:39;;;;;;;43.50;19.77;;;;;;;;;;5001174;28;20768;-69
2024/02/27 08:26:06;;;;;;;41.33;19.07;;;;;;;;;;5004593;28;20109;-69
2024/02/27 08:28:31;;;;;;;42.95;20.77;;;;;;;;;;5002004;28;20280;-69
2024/02/27 08:30:56;;;;;;;40.70;19.65;;;;;;;;;;5007638;28;20030;-69
2024/02/27 08:33:21;;;;;;;39.07;20.87;;;;;;;;;;5000067;28;20034;-69
2024/02/27 08:35:48;;;;;;;36.37;19.67;;;;;;;;;;4995251;28;20304;-69
2024/02/27 08:38:13;;;;;;;38.85;19.92;;;;;;;;;;5009343;28;22169;-69
2024/02/27 08:40:38;;;;;;;40.77;18.93;;;;;;;;;;5007212;28;20053;-69
2024/02/27 08:43:04;;;;;;;37.83;19.17;;;;;;;;;;5002189;28;20280;-69
2024/02/27 08:45:29;;;;;;;39.37;19.63;;;;;;;;;;5009574;28;20253;-69
2024/02/27 08:47:54;;;;;;;43.50;19.75;;;;;;;;;;5008185;28;20279;-69
2024/02/27 08:50:19;;;;;;;32.87;19.10;;;;;;;;;;5008657;28;20512;-69
2024/02/27 08:52:45;;;;;;;35.83;18.50;;;;;;;;;;5007575;28;20360;-69
2024/02/27 08:55:11;;;;;;;37.50;18.53;;;;;;;;;;5000628;28;20380;-69
2024/02/27 08:57:36;;;;;;;33.50;18.33;;;;;;;;;;5002262;28;20268;-69
2024/02/27 09:00:06;;;;;;;36.85;18.67;;;;;;;;;;5005886;28;20354;-69
2024/02/27 09:02:31;;;;;;;35.33;18.88;;;;;;;;;;5000998;28;20113;-69
2024/02/27 09:04:56;;;;;;;33.75;18.17;;;;;;;;;;5012622;28;20502;-69
2024/02/27 09:07:22;;;;;;;37.57;18.57;;;;;;;;;;5011209;28;20038;-69
2024/02/27 09:09:47;;;;;;;31.13;17.43;;;;;;;;;;5006369;28;20249;-69
2024/02/27 09:12:12;;;;;;;34.50;17.27;;;;;;;;;;5004551;28;20716;-69
2024/02/27 09:14:38;;;;;;;35.83;19.13;;;;;;;;;;5008802;28;20265;-69
2024/02/27 09:17:03;;;;;;;32.42;17.38;;;;;;;;;;5008535;28;20395;-69
2024/02/27 09:19:29;;;;;;;38.05;18.25;;;;;;;;;;5005620;28;20112;-69
2024/02/27 09:21:54;;;;;;;33.80;17.60;;;;;;;;;;5007549;28;20028;-69
2024/02/27 09:24:19;;;;;;;32.97;17.15;;;;;;;;;;5006622;28;20026;-69
2024/02/27 09:26:45;;;;;;;34.23;18.13;;;;;;;;;;5006793;28;20384;-69
2024/02/27 09:29:10;;;;;;;32.83;16.50;;;;;;;;;;5009574;28;20269;-69
2024/02/27 09:31:36;;;;;;;32.85;17.10;;;;;;;;;;5003921;28;20459;-69
2024/02/27 09:34:01;;;;;;;32.75;16.92;;;;;;;;;;5008353;28;20030;-69
2024/02/27 09:36:26;;;;;;;33.28;17.75;;;;;;;;;;5007816;28;20026;-70
2024/02/27 09:38:51;;;;;;;34.70;18.20;;;;;;;;;;5000694;28;20125;-69
2024/02/27 09:41:30;;;;;;;30.87;15.50;;;;;;;;;;5006448;28;20257;-69
2024/02/27 09:43:55;;;;;;;31.55;16.92;;;;;;;;;;5011269;28;20308;-68
2024/02/27 09:46:22;;;;;;;30.83;16.48;;;;;;;;;;5005640;28;20398;-68
2024/02/27 09:48:50;;;;;;;31.90;15.70;;;;;;;;;;5005119;28;20473;-68
2024/02/27 09:51:16;;;;;;;34.70;16.98;;;;;;;;;;5010106;28;20073;-68
2024/02/27 09:53:42;;;;;;;30.60;17.10;;;;;;;;;;5007585;28;20013;-68
2024/02/27 09:56:11;;;;;;;32.88;16.95;;;;;;;;;;5012555;28;20033;-68
2024/02/27 09:58:38;;;;;;;31.85;16.40;;;;;;;;;;5014510;28;20049;-68
2024/02/27 10:01:06;;;;;;;32.58;17.40;;;;;;;;;;5006291;28;20041;-68
2024/02/27 10:03:32;;;;;;;32.53;17.42;;;;;;;;;;5000254;28;20042;-68
2024/02/27 10:05:58;;;;;;;34.90;16.95;;;;;;;;;;4995394;28;20022;-68
2024/02/27 10:08:24;;;;;;;32.83;16.70;;;;;;;;;;5006183;28;20026;-68
2024/02/27 10:10:50;;;;;;;35.55;17.80;;;;;;;;;;5003323;28;20500;-68
2024/02/27 10:13:16;;;;;;;30.92;16.88;;;;;;;;;;5013693;28;20037;-68
2024/02/27 10:15:41;;;;;;;35.88;17.55;;;;;;;;;;5005343;28;20075;-68
2024/02/27 10:18:07;;;;;;;35.45;18.15;;;;;;;;;;5003255;28;20101;-68
2024/02/27 10:20:33;;;;;;;36.45;17.95;;;;;;;;;;4999756;28;20022;-68
2024/02/27 10:22:58;;;;;;;33.83;18.60;;;;;;;;;;5005546;28;20025;-68
2024/02/27 10:25:25;;;;;;;35.47;18.10;;;;;;;;;;5004032;28;20367;-68
2024/02/27 10:27:50;;;;;;;30.92;16.05;;;;;;;;;;5004939;28;20025;-68
2024/02/27 10:30:17;;;;;;;31.85;17.67;;;;;;;;;;5009190;28;20045;-68
2024/02/27 10:32:42;;;;;;;31.48;15.43;;;;;;;;;;5000851;28;20366;-68
2024/02/27 10:35:08;;;;;;;28.55;16.00;;;;;;;;;;4996306;28;20022;-68
2024/02/27 10:37:35;;;;;;;29.48;16.45;;;;;;;;;;5004572;28;20026;-68
2024/02/27 10:40:01;;;;;;;31.67;16.77;;;;;;;;;;5006872;28;20064;-68
2024/02/27 10:42:30;;;;;;;32.38;16.70;;;;;;;;;;5003435;28;20050;-68
2024/02/27 10:44:58;;;;;;;27.25;15.75;;;;;;;;;;5005659;28;20025;-68
2024/02/27 10:47:26;;;;;;;27.75;15.30;;;;;;;;;;5005600;28;20024;-68
2024/02/27 10:49:55;;;;;;;31.95;17.40;;;;;;;;;;5001920;28;20026;-68
2024/02/27 10:52:24;;;;;;;31.17;16.73;;;;;;;;;;5007804;28;20026;-68
2024/02/27 10:54:49;;;;;;;27.10;15.32;;;;;;;;;;5000736;28;20076;-68
2024/02/27 10:57:16;;;;;;;33.80;17.52;;;;;;;;;;5002101;28;20026;-68
2024/02/27 10:59:42;;;;;;;28.60;15.02;;;;;;;;;;5006131;28;20065;-68
2024/02/27 11:02:14;;;;;;;25.60;14.82;;;;;;;;;;4999229;28;20053;-68
2024/02/27 11:04:39;;;;;;;28.70;16.13;;;;;;;;;;5000635;28;20508;-68
2024/02/27 11:07:05;;;;;;;29.77;16.17;;;;;;;;;;5000199;28;20034;-68
2024/02/27 11:09:30;;;;;;;32.40;16.15;;;;;;;;;;5005000;28;20014;-68
2024/02/27 11:11:56;;;;;;;38.30;17.48;;;;;;;;;;5003117;28;20337;-68
2024/02/27 11:14:24;;;;;;;25.10;14.05;;;;;;;;;;5002423;28;20023;-67
2024/02/27 11:16:51;;;;;;;30.05;15.95;;;;;;;;;;5000019;28;20054;-67
2024/02/27 11:19:17;;;;;;;25.17;14.55;;;;;;;;;;5003426;28;20033;-66
2024/02/27 11:21:43;;;;;;;26.85;15.23;;;;;;;;;;5005790;28;20420;-67
2024/02/27 11:24:08;;;;;;;23.85;13.60;;;;;;;;;;5001319;28;20023;-67
2024/02/27 11:26:34;;;;;;;24.80;14.35;;;;;;;;;;4999809;28;20029;-67
2024/02/27 11:28:59;;;;;;;28.20;14.82;;;;;;;;;;5000465;28;20029;-67
2024/02/27 11:31:25;;;;;;;25.38;14.25;;;;;;;;;;4999954;28;20029;-67
2024/02/27 11:33:50;;;;;;;24.98;14.32;;;;;;;;;;5002639;28;20018;-67
2024/02/27 11:36:16;;;;;;;22.00;13.15;;;;;;;;;;5008987;28;20091;-67
2024/02/27 11:38:41;;;;;;;25.45;13.55;;;;;;;;;;5003449;28;20473;-67
2024/02/27 11:41:06;;;;;;;27.15;14.50;;;;;;;;;;4998427;28;20382;-67
2024/02/27 11:43:32;;;;;;;24.25;14.18;;;;;;;;;;5000134;28;20030;-67
2024/02/27 11:46:17;;;;;;;32.60;15.00;;;;;;;;;;5000040;28;20027;-67
2024/02/27 11:48:46;;;;;;;26.63;15.23;;;;;;;;;;5002021;28;20261;-67
2024/02/27 11:51:11;;;;;;;27.15;14.88;;;;;;;;;;5006607;28;20045;-67
2024/02/27 11:53:36;;;;;;;25.20;13.60;;;;;;;;;;5002260;28;20476;-67
2024/02/27 11:56:02;;;;;;;24.30;14.43;;;;;;;;;;5004434;28;20030;-68
2024/02/27 11:58:27;;;;;;;24.70;14.02;;;;;;;;;;4998389;28;20109;-67
2024/02/27 12:00:52;;;;;;;23.97;13.63;;;;;;;;;;5002808;28;20064;-67
2024/02/27 12:03:18;;;;;;;22.80;13.10;;;;;;;;;;4999781;28;20276;-67
2024/02/27 12:05:52;;;;;;;23.70;14.48;;;;;;;;;;5007865;28;20767;-68
2024/02/27 12:08:18;;;;;;;32.22;13.40;;;;;;;;;;5005928;28;20560;-68
2024/02/27 12:10:44;;;;;;;24.30;13.02;;;;;;;;;;5001025;28;20011;-67
2024/02/27 12:13:09;;;;;;;28.85;15.30;;;;;;;;;;4999002;28;20041;-67
2024/02/27 12:15:34;;;;;;;26.75;14.60;;;;;;;;;;5002136;28;20024;-67
2024/02/27 12:17:59;;;;;;;22.50;12.82;;;;;;;;;;5002392;28;20501;-67
2024/02/27 12:20:25;;;;;;;23.90;12.48;;;;;;;;;;5006232;28;20021;-67
2024/02/27 12:22:50;;;;;;;23.80;13.80;;;;;;;;;;5006200;28;20097;-67
2024/02/27 12:25:15;;;;;;;26.10;12.85;;;;;;;;;;5003702;28;20018;-67
2024/02/27 12:27:42;;;;;;;27.00;12.93;;;;;;;;;;4993254;28;20025;-67
2024/02/27 12:30:10;;;;;;;27.65;13.85;;;;;;;;;;5000074;28;20473;-67
2024/02/27 12:32:42;;;;;;;22.40;12.63;;;;;;;;;;5002584;28;20034;-67
2024/02/27 12:35:08;;;;;;;24.08;13.73;;;;;;;;;;5001719;28;20102;-67
2024/02/27 12:37:37;;;;;;;24.25;14.15;;;;;;;;;;5001844;28;20053;-67
2024/02/27 12:40:03;;;;;;;24.88;13.65;;;;;;;;;;4998213;28;20025;-67
2024/02/27 12:42:28;;;;;;;22.17;12.88;;;;;;;;;;5001880;28;20014;-67
2024/02/27 12:44:53;;;;;;;23.55;13.00;;;;;;;;;;4997330;28;20103;-67
2024/02/27 12:47:18;;;;;;;27.93;13.10;;;;;;;;;;5001837;28;20034;-67
2024/02/27 12:49:44;;;;;;;23.35;13.18;;;;;;;;;;4994720;28;20266;-68
2024/02/27 12:52:13;;;;;;;24.35;13.60;;;;;;;;;;4998998;28;20057;-67
2024/02/27 12:54:38;;;;;;;25.20;13.65;;;;;;;;;;5000551;28;20029;-67
2024/02/27 12:57:04;;;;;;;23.30;13.33;;;;;;;;;;4996416;28;20026;-67
2024/02/27 12:59:29;;;;;;;23.48;13.20;;;;;;;;;;5003058;28;20748;-67
2024/02/27 13:01:55;;;;;;;24.70;13.65;;;;;;;;;;4999537;28;20489;-67
2024/02/27 13:04:22;;;;;;;27.33;15.73;;;;;;;;;;4999573;28;20022;-67
2024/02/27 13:06:48;;;;;;;23.63;13.65;;;;;;;;;;5002712;28;20018;-67
2024/02/27 13:09:14;;;;;;;24.40;12.93;;;;;;;;;;4999095;28;20117;-67
2024/02/27 13:11:45;;;;;;;21.35;11.88;;;;;;;;;;4998224;28;20291;-67
2024/02/27 13:14:10;;;;;;;24.95;13.25;;;;;;;;;;4998471;28;20022;-67
2024/02/27 13:16:35;;;;;;;23.73;12.27;;;;;;;;;;5003492;28;20029;-67
2024/02/27 13:19:00;;;;;;;26.17;13.50;;;;;;;;;;5001203;28;20293;-67
2024/02/27 13:21:26;;;;;;;20.10;12.18;;;;;;;;;;4994646;28;20347;-67
2024/02/27 13:23:51;;;;;;;25.95;12.23;;;;;;;;;;4997156;28;20064;-67
2024/02/27 13:26:16;;;;;;;27.20;15.02;;;;;;;;;;5001362;28;20029;-67
2024/02/27 13:28:42;;;;;;;24.58;13.38;;;;;;;;;;5004938;28;20559;-67
2024/02/27 13:31:07;;;;;;;26.93;13.77;;;;;;;;;;5003583;28;20105;-67
2024/02/27 13:33:32;;;;;;;28.75;16.70;;;;;;;;;;4998178;28;20881;-67
2024/02/27 13:35:59;;;;;;;34.07;16.63;;;;;;;;;;5004435;28;20029;-67
2024/02/27 13:38:24;;;;;;;31.77;16.15;;;;;;;;;;4997103;28;20269;-67
2024/02/27 13:40:49;;;;;;;30.90;13.83;;;;;;;;;;5009552;28;20041;-67
2024/02/27 13:43:14;;;;;;;24.40;13.73;;;;;;;;;;5022754;28;20355;-67
2024/02/27 13:45:40;;;;;;;22.73;13.10;;;;;;;;;;5000233;28;20108;-67
2024/02/27 13:48:05;;;;;;;31.27;15.07;;;;;;;;;;4998919;28;20444;-67
2024/02/27 13:50:30;;;;;;;26.30;14.25;;;;;;;;;;4999441;28;20262;-67
2024/02/27 13:52:55;;;;;;;26.97;14.10;;;;;;;;;;5007342;28;20036;-67
2024/02/27 13:55:21;;;;;;;25.70;15.38;;;;;;;;;;5005340;28;20311;-68
2024/02/27 13:57:46;;;;;;;25.88;14.00;;;;;;;;;;5009951;28;20499;-66
2024/02/27 14:00:11;;;;;;;24.40;14.25;;;;;;;;;;5003725;28;20597;-67
2024/02/27 14:02:36;;;;;;;25.08;13.30;;;;;;;;;;4998985;28;20380;-67
2024/02/27 14:05:02;;;;;;;25.30;13.17;;;;;;;;;;5003733;28;20065;-67
2024/02/27 14:07:28;;;;;;;29.02;14.15;;;;;;;;;;5006550;28;20273;-67
2024/02/27 14:09:53;;;;;;;28.73;15.50;;;;;;;;;;5008627;28;20103;-67